Time;durP1;ratioP1;P1;durP2;ratioP2;P2;SDS_P1;SDS_P2;PMS_P1;PMS_P2;Temp;Humidity;BMP_temperature;BMP_pressure;BME280_temperature;BME280_humidity;BME280_pressure;Samples;Min_cycle;Max_cycle;Signal;HPM_P1;HPM_P2
2023/10/12 00:01:59;;;;;;;18.90;11.00;;;;;;;12.65;100.00;100823.47;5587572;31;33954;-66
2023/10/12 00:05:06;;;;;;;20.10;11.65;;;;;;;12.57;100.00;100819.03;5587399;31;34240;-66
2023/10/12 00:08:10;;;;;;;22.27;11.35;;;;;;;12.49;100.00;100812.87;5587452;31;34351;-67
2023/10/12 00:11:19;;;;;;;17.35;11.75;;;;;;;12.48;100.00;100811.22;5587720;31;33991;-67
2023/10/12 00:14:22;;;;;;;17.50;12.25;;;;;;;12.39;100.00;100812.25;5590630;31;33982;-67
2023/10/12 00:17:26;;;;;;;20.37;11.55;;;;;;;12.33;100.00;100808.41;5590183;31;34731;-67
2023/10/12 00:23:33;;;;;;;19.73;12.20;;;;;;;12.28;100.00;100809.91;5576373;31;34021;-67
2023/10/12 00:26:36;;;;;;;16.23;12.35;;;;;;;12.22;100.00;100795.47;5590381;31;34731;-67
2023/10/12 00:29:39;;;;;;;16.17;12.25;;;;;;;12.13;100.00;100799.97;5590122;31;34752;-67
2023/10/12 00:32:42;;;;;;;19.17;12.63;;;;;;;12.11;100.00;100795.78;5590066;31;34094;-67
2023/10/12 00:35:50;;;;;;;20.15;12.60;;;;;;;12.08;100.00;100793.47;5590214;31;34501;-67
2023/10/12 00:38:56;;;;;;;18.80;13.15;;;;;;;12.01;100.00;100798.63;5589928;31;34299;-67
2023/10/12 00:42:00;;;;;;;18.40;13.00;;;;;;;11.95;100.00;100794.00;5590014;31;34781;-67
2023/10/12 00:45:10;;;;;;;17.98;13.90;;;;;;;12.01;100.00;100795.12;5590079;31;34718;-67
2023/10/12 00:48:19;;;;;;;17.65;13.05;;;;;;;11.94;100.00;100783.50;5589958;31;33961;-67
2023/10/12 00:51:22;;;;;;;20.73;13.73;;;;;;;11.91;100.00;100778.53;5589996;31;34089;-67
2023/10/12 00:57:42;;;;;;;23.87;13.60;;;;;;;11.81;100.00;100778.72;5589872;31;34680;-67
2023/10/12 01:00:46;;;;;;;20.33;14.10;;;;;;;11.75;100.00;100779.37;5590207;31;34700;-67
2023/10/12 01:03:50;;;;;;;22.45;13.85;;;;;;;11.72;100.00;100772.53;5589804;31;34024;-67
2023/10/12 01:06:59;;;;;;;17.75;13.35;;;;;;;11.68;100.00;100770.34;5589946;31;35105;-67
2023/10/12 01:10:06;;;;;;;23.52;14.63;;;;;;;11.70;100.00;100763.88;5589764;31;33947;-67
2023/10/12 01:13:11;;;;;;;23.00;14.63;;;;;;;11.62;100.00;100763.84;5589686;31;34777;-67
2023/10/12 01:16:22;;;;;;;27.15;14.93;;;;;;;11.64;100.00;100769.00;5589759;31;35426;-68
2023/10/12 01:19:31;;;;;;;18.08;14.23;;;;;;;11.60;100.00;100765.03;5589607;31;34198;-68
2023/10/12 01:22:34;;;;;;;22.87;14.82;;;;;;;11.54;100.00;100755.87;5589480;31;34803;-68
2023/10/12 01:25:40;;;;;;;20.48;15.27;;;;;;;11.51;100.00;100764.19;5589167;31;35025;-67
2023/10/12 01:28:48;;;;;;;20.70;15.15;;;;;;;11.50;100.00;100756.38;5589397;31;34995;-67
2023/10/12 01:35:12;;;;;;;22.23;15.35;;;;;;;11.43;100.00;100755.37;5589564;31;35016;-66
2023/10/12 01:38:15;;;;;;;20.08;15.05;;;;;;;11.40;100.00;100753.03;5589487;31;34352;-66
2023/10/12 01:41:25;;;;;;;18.92;15.05;;;;;;;11.38;100.00;100752.37;5576247;31;34268;-67
2023/10/12 01:44:29;;;;;;;22.67;15.82;;;;;;;11.36;100.00;100749.91;5589445;31;34014;-67
2023/10/12 01:47:37;;;;;;;21.30;15.43;;;;;;;11.34;100.00;100747.41;5589381;31;34719;-67
2023/10/12 01:50:40;;;;;;;24.70;15.40;;;;;;;11.29;100.00;100751.53;5589515;31;34170;-67
2023/10/12 01:53:43;;;;;;;22.55;15.90;;;;;;;11.26;100.00;100757.19;5589363;31;34694;-66
2023/10/12 01:56:50;;;;;;;19.02;14.98;;;;;;;11.24;100.00;100759.16;5589326;31;34611;-67
2023/10/12 01:59:54;;;;;;;20.48;16.12;;;;;;;11.20;100.00;100756.00;5589620;31;34790;-66
2023/10/12 02:03:15;;;;;;;20.37;16.12;;;;;;;11.19;100.00;100758.81;5575772;31;34231;-66
2023/10/12 02:06:19;;;;;;;19.83;16.02;;;;;;;11.15;100.00;100758.31;5589202;31;34802;-67
2023/10/12 02:09:22;;;;;;;21.67;16.05;;;;;;;11.16;100.00;100759.97;5575870;31;34510;-66
2023/10/12 02:12:26;;;;;;;25.33;15.82;;;;;;;11.13;100.00;100755.00;5589527;31;34014;-67
2023/10/12 02:15:31;;;;;;;20.92;15.90;;;;;;;11.12;100.00;100752.50;5589182;31;34746;-66
2023/10/12 02:18:35;;;;;;;19.62;16.20;;;;;;;11.10;100.00;100762.44;5589233;31;34812;-67
2023/10/12 02:21:39;;;;;;;21.50;16.27;;;;;;;11.07;100.00;100755.66;5575482;31;34004;-66
2023/10/12 02:24:42;;;;;;;23.05;15.80;;;;;;;11.03;100.00;100756.97;5575576;31;34858;-67
2023/10/12 02:27:54;;;;;;;23.65;17.05;;;;;;;10.99;100.00;100752.13;5589226;31;34320;-66
2023/10/12 02:30:58;;;;;;;22.23;16.92;;;;;;;10.94;100.00;100749.13;5588929;31;34127;-67
2023/10/12 02:34:02;;;;;;;24.45;17.42;;;;;;;10.92;100.00;100749.28;5588933;31;34722;-67
2023/10/12 02:40:16;;;;;;;23.20;17.58;;;;;;;10.82;100.00;100752.06;5588704;31;34315;-67
2023/10/12 02:43:19;;;;;;;22.13;17.70;;;;;;;10.78;100.00;100758.69;5588856;31;34268;-66
2023/10/12 02:46:23;;;;;;;23.65;17.87;;;;;;;10.77;100.00;100761.50;5588623;31;34822;-67
2023/10/12 02:49:29;;;;;;;21.92;17.77;;;;;;;10.72;100.00;100751.38;5575150;31;34059;-67
2023/10/12 02:52:32;;;;;;;21.10;17.90;;;;;;;10.70;100.00;100750.69;5588694;31;34638;-67
2023/10/12 02:55:40;;;;;;;19.50;17.05;;;;;;;10.70;100.00;100749.84;5588702;31;34178;-67
2023/10/12 02:58:45;;;;;;;25.63;17.63;;;;;;;10.66;100.00;100749.34;5589118;31;34248;-67
2023/10/12 03:01:59;;;;;;;22.23;17.95;;;;;;;10.63;100.00;100748.84;5588612;31;34009;-67
2023/10/12 03:05:06;;;;;;;23.17;17.75;;;;;;;10.61;100.00;100738.37;5588927;31;34653;-67
2023/10/12 03:08:14;;;;;;;23.52;18.15;;;;;;;10.58;100.00;100741.34;5588829;31;34157;-67
2023/10/12 03:11:20;;;;;;;20.80;17.15;;;;;;;10.57;100.00;100742.34;5588657;31;34375;-67
2023/10/12 03:14:26;;;;;;;22.30;17.52;;;;;;;10.58;100.00;100743.19;5588423;31;34120;-67
2023/10/12 03:17:30;;;;;;;23.02;17.98;;;;;;;10.55;100.00;100747.00;5574817;31;33970;-67
2023/10/12 03:20:35;;;;;;;23.08;18.17;;;;;;;10.50;100.00;100745.81;5588567;31;34255;-67
2023/10/12 03:23:40;;;;;;;22.85;18.37;;;;;;;10.45;100.00;100733.84;5588720;31;35353;-67
2023/10/12 03:26:57;;;;;;;24.30;18.42;;;;;;;10.43;100.00;100745.59;5588282;31;34759;-67
2023/10/12 03:30:09;;;;;;;25.02;18.62;;;;;;;10.40;100.00;100743.25;5588161;31;34667;-67
2023/10/12 03:33:14;;;;;;;24.08;17.70;;;;;;;10.41;100.00;100745.75;5588528;31;34678;-67
2023/10/12 03:36:22;;;;;;;21.85;18.10;;;;;;;10.39;100.00;100744.25;5574479;31;34702;-67
2023/10/12 03:39:27;;;;;;;26.05;18.65;;;;;;;10.37;100.00;100747.03;5587822;31;34177;-67
2023/10/12 03:45:59;;;;;;;24.40;17.35;;;;;;;10.34;100.00;100750.03;5587941;31;34041;-67
2023/10/12 03:52:34;;;;;;;19.42;17.33;;;;;;;10.32;100.00;100741.38;5566431;31;34113;-67
2023/10/12 03:55:42;;;;;;;22.67;18.05;;;;;;;10.32;100.00;100738.72;5590764;31;34164;-68
2023/10/12 03:58:58;;;;;;;23.48;17.50;;;;;;;10.31;100.00;100731.75;5590237;31;34022;-68
2023/10/12 04:02:01;;;;;;;22.92;16.87;;;;;;;10.28;100.00;100729.44;5590380;31;34294;-68
2023/10/12 04:05:18;;;;;;;21.67;16.75;;;;;;;10.25;100.00;100734.22;5590434;31;34728;-68
2023/10/12 04:12:37;;;;;;;25.05;16.30;;;;;;;10.18;100.00;100741.13;5590294;31;34114;-68
2023/10/12 04:15:09;;;;;;;20.25;16.40;;;;;;;10.16;100.00;100738.66;5579865;31;34125;-69
2023/10/12 04:18:14;;;;;;;23.42;17.60;;;;;;;10.20;100.00;100740.00;5590170;31;34050;-67
2023/10/12 04:21:33;;;;;;;19.83;16.73;;;;;;;10.16;100.00;100736.00;5576368;31;34049;-67
2023/10/12 04:24:42;;;;;;;25.77;18.10;;;;;;;10.15;100.00;100742.25;5590155;31;34079;-67
2023/10/12 04:28:32;;;;;;;25.45;18.37;;;;;;;10.11;100.00;100738.25;5590415;31;34793;-67
2023/10/12 04:34:16;;;;;;;26.27;19.08;;;;;;;10.10;100.00;100739.25;5589780;31;34043;-67
2023/10/12 04:37:25;;;;;;;26.45;18.65;;;;;;;10.07;100.00;100736.88;5589980;31;33575;-67
2023/10/12 04:40:43;;;;;;;25.75;18.48;;;;;;;10.06;100.00;100731.75;5589925;31;34704;-68
2023/10/12 04:43:53;;;;;;;22.92;18.23;;;;;;;10.04;100.00;100734.56;5590264;31;34165;-67
2023/10/12 04:50:08;;;;;;;25.40;18.25;;;;;;;10.04;100.00;100731.91;5589635;31;34901;-67
2023/10/12 04:53:12;;;;;;;30.20;18.60;;;;;;;10.02;100.00;100739.19;5589704;31;34243;-68
2023/10/12 04:56:18;;;;;;;43.87;19.98;;;;;;;10.01;100.00;100733.06;5589486;31;34123;-67
2023/10/12 04:59:28;;;;;;;25.08;19.62;;;;;;;9.98;100.00;100741.31;5589268;31;34324;-67
2023/10/12 05:02:41;;;;;;;26.20;19.05;;;;;;;9.95;100.00;100738.97;5590915;31;34723;-66
2023/10/12 05:09:19;;;;;;;28.45;20.37;;;;;;;10.04;100.00;100737.19;5571832;31;34658;-68
2023/10/12 05:12:26;;;;;;;27.02;19.55;;;;;;;10.02;100.00;100745.28;5589472;31;34189;-67
2023/10/12 05:15:39;;;;;;;26.52;19.62;;;;;;;10.07;100.00;100741.38;5589256;31;35123;-67
2023/10/12 05:18:43;;;;;;;28.50;19.37;;;;;;;10.11;100.00;100750.69;5589352;31;34884;-67
2023/10/12 05:21:46;;;;;;;30.85;19.85;;;;;;;10.20;100.00;100750.59;5589413;31;34775;-67
2023/10/12 05:24:48;;;;;;;29.77;19.80;;;;;;;10.25;100.00;100740.38;5589331;31;35457;-67
2023/10/12 05:31:13;;;;;;;30.67;19.27;;;;;;;10.32;100.00;100751.16;5589387;31;34058;-68
2023/10/12 05:37:49;;;;;;;24.00;18.87;;;;;;;10.37;100.00;100752.34;5582189;31;33912;-67
2023/10/12 05:40:55;;;;;;;27.25;19.05;;;;;;;10.43;100.00;100751.72;5589286;31;34072;-67
2023/10/12 05:43:58;;;;;;;25.95;18.92;;;;;;;10.50;100.00;100746.63;5589118;31;34118;-68
2023/10/12 05:47:01;;;;;;;26.15;19.48;;;;;;;10.57;100.00;100752.94;5588976;31;34903;-68
2023/10/12 05:50:05;;;;;;;28.58;18.85;;;;;;;10.65;100.00;100750.31;5588767;31;34447;-67
2023/10/12 05:53:08;;;;;;;31.50;18.75;;;;;;;10.72;100.00;100751.38;5588702;31;34708;-67
2023/10/12 05:56:12;;;;;;;20.92;15.70;;;;;;;10.77;100.00;100749.06;5588905;31;33989;-68
2023/10/12 05:59:15;;;;;;;24.23;13.27;;;;;;;10.88;100.00;100747.94;5575146;31;33969;-68
2023/10/12 06:02:18;;;;;;;21.02;12.25;;;;;;;11.03;100.00;100749.00;5589270;31;34057;-67
2023/10/12 06:05:22;;;;;;;20.05;11.55;;;;;;;11.15;100.00;100753.00;5588682;31;33998;-68
2023/10/12 06:08:27;;;;;;;19.45;10.32;;;;;;;11.22;100.00;100755.84;5588890;31;34910;-67
2023/10/12 06:11:30;;;;;;;18.52;9.88;;;;;;;11.28;100.00;100776.41;5588217;31;34752;-67
2023/10/12 06:14:38;;;;;;;15.75;9.05;;;;;;;11.37;100.00;100785.25;5588912;31;34220;-68
2023/10/12 06:17:49;;;;;;;15.65;9.43;;;;;;;11.46;100.00;100777.16;5588818;31;33962;-68
2023/10/12 06:20:58;;;;;;;16.48;9.85;;;;;;;11.54;100.00;100777.16;5588445;31;34710;-68
2023/10/12 06:24:05;;;;;;;17.42;10.05;;;;;;;11.65;100.00;100778.66;5574786;31;34790;-68
2023/10/12 06:30:23;;;;;;;24.75;9.05;;;;;;;11.77;100.00;100777.34;5588718;31;34015;-68
2023/10/12 06:33:26;;;;;;;15.40;8.35;;;;;;;11.89;100.00;100776.03;5575032;31;32851;-67
2023/10/12 06:36:38;;;;;;;18.42;8.65;;;;;;;12.03;100.00;100783.34;5588867;31;34037;-67
2023/10/12 06:46:15;;;;;;;17.90;7.70;;;;;;;12.49;100.00;100765.00;5588505;31;34325;-67
2023/10/12 06:49:23;;;;;;;18.52;8.13;;;;;;;12.65;100.00;100772.91;5588315;31;34740;-67
2023/10/12 06:52:27;;;;;;;15.80;7.65;;;;;;;12.68;100.00;100772.56;5574393;31;34260;-67
2023/10/12 06:55:31;;;;;;;14.75;8.25;;;;;;;12.71;100.00;100776.72;5588267;31;34833;-67
2023/10/12 06:58:37;;;;;;;16.90;7.15;;;;;;;12.81;100.00;100780.84;5588068;31;34889;-67
2023/10/12 07:04:55;;;;;;;15.60;7.10;;;;;;;12.92;100.00;100787.62;5588152;31;34106;-67
2023/10/12 07:07:59;;;;;;;13.30;7.00;;;;;;;13.06;100.00;100784.22;5588322;31;34057;-67
2023/10/12 07:11:04;;;;;;;12.13;7.35;;;;;;;13.07;100.00;100777.88;5588497;31;34124;-67
2023/10/12 07:14:07;;;;;;;14.30;7.30;;;;;;;13.24;100.00;100784.00;5588127;31;34832;-68
2023/10/12 07:17:10;;;;;;;10.50;6.87;;;;;;;13.42;100.00;100781.88;5587974;31;34294;-67
2023/10/12 07:20:26;;;;;;;14.93;7.32;;;;;;;13.61;100.00;100777.91;5587961;31;34096;-67
2023/10/12 07:23:35;;;;;;;13.07;7.10;;;;;;;13.75;100.00;100777.16;5587097;31;35233;-67
2023/10/12 07:26:41;;;;;;;13.63;6.90;;;;;;;13.82;100.00;100775.44;5588054;31;34199;-67
2023/10/12 07:29:44;;;;;;;14.15;7.35;;;;;;;13.79;100.00;100763.31;5574235;31;34010;-67
2023/10/12 07:32:56;;;;;;;17.42;6.90;;;;;;;14.06;100.00;100761.88;5588017;31;34004;-67
2023/10/12 07:36:16;;;;;;;17.30;6.62;;;;;;;15.25;100.00;100761.69;5587675;31;34259;-67
2023/10/12 07:39:21;;;;;;;15.63;5.93;;;;;;;17.05;100.00;100775.25;5587934;31;34098;-67
2023/10/12 07:42:27;;;;;;;16.30;6.93;;;;;;;17.77;100.00;100769.28;5587864;31;33999;-67
2023/10/12 07:45:40;;;;;;;13.30;6.80;;;;;;;19.05;95.38;100776.75;5587578;31;34675;-67
2023/10/12 07:48:46;;;;;;;13.57;6.05;;;;;;;20.90;78.90;100779.69;5587867;31;34356;-68
2023/10/12 07:55:12;;;;;;;15.57;5.87;;;;;;;21.97;68.37;100781.56;5587106;31;34868;-68
2023/10/12 07:58:18;;;;;;;9.88;5.68;;;;;;;23.50;60.03;100774.91;5573809;31;34015;-68
2023/10/12 08:04:31;;;;;;;14.18;6.43;;;;;;;24.42;52.75;100770.78;5587188;31;33934;-69
2023/10/12 08:07:59;;;;;;;15.32;6.20;;;;;;;23.17;57.18;100770.19;5587433;31;34097;-69
2023/10/12 08:10:59;;;;;;;14.80;6.40;;;;;;;22.92;57.03;100763.22;5587546;31;34689;-68
2023/10/12 08:17:33;;;;;;;17.62;6.47;;;;;;;24.54;51.61;100774.22;5586974;31;34741;-68
2023/10/12 08:21:00;;;;;;;15.00;6.20;;;;;;;23.35;55.77;100764.56;5587093;31;34734;-68
2023/10/12 08:27:12;;;;;;;12.00;6.57;;;;;;;22.38;58.52;100758.19;5586870;31;34401;-68
2023/10/12 08:30:24;;;;;;;24.05;6.93;;;;;;;20.85;66.14;100759.84;5586983;31;33979;-69
2023/10/12 08:40:20;;;;;;;15.23;7.82;;;;;;;18.29;98.82;100744.28;5590191;31;34729;-68
2023/10/12 08:43:42;;;;;;;17.08;8.02;;;;;;;17.85;100.00;100736.91;5589416;31;34834;-68
2023/10/12 08:47:24;;;;;;;14.63;8.32;;;;;;;17.71;100.00;100745.97;5589880;31;34829;-69
2023/10/12 08:53:26;;;;;;;20.30;7.90;;;;;;;17.17;100.00;100736.13;5589819;31;35181;-69
2023/10/12 08:56:35;;;;;;;64.55;10.68;;;;;;;17.26;100.00;100728.72;5589488;31;34090;-68
2023/10/12 08:59:42;;;;;;;34.93;9.07;;;;;;;17.16;100.00;100722.94;5589757;31;34511;-67
2023/10/12 09:02:52;;;;;;;19.25;8.32;;;;;;;17.09;100.00;100722.91;5589887;31;34228;-67
2023/10/12 09:05:55;;;;;;;;;;;;;;;17.03;100.00;100717.53;5590127;31;33507;-67
2023/10/12 09:09:00;;;;;;;21.25;9.77;;;;;;;16.92;100.00;100716.25;5589492;31;35023;-68
2023/10/12 09:12:11;;;;;;;16.00;9.27;;;;;;;16.92;100.00;100724.28;5589236;31;34110;-68
2023/10/12 09:15:28;;;;;;;19.37;9.13;;;;;;;17.07;100.00;100724.97;5589720;31;34782;-68
2023/10/12 09:18:43;;;;;;;15.00;9.10;;;;;;;17.00;100.00;100717.91;5589779;31;34176;-67
2023/10/12 09:21:57;;;;;;;24.12;9.95;;;;;;;17.03;100.00;100706.81;5589270;31;34061;-67
2023/10/12 09:25:05;;;;;;;16.50;9.50;;;;;;;17.29;100.00;100701.50;5589225;31;34871;-68
2023/10/12 09:28:14;;;;;;;28.95;9.48;;;;;;;17.29;100.00;100710.38;5589336;31;33994;-68
2023/10/12 09:34:42;;;;;;;17.77;9.77;;;;;;;17.38;100.00;100708.31;5588518;31;34271;-66
2023/10/12 09:37:45;;;;;;;54.85;10.70;;;;;;;17.42;100.00;100701.53;5588678;31;34851;-67
2023/10/12 09:40:52;;;;;;;21.40;9.60;;;;;;;17.67;100.00;100699.13;5588965;31;34555;-67
2023/10/12 09:43:56;;;;;;;16.87;9.68;;;;;;;17.59;100.00;100691.25;5574659;31;34027;-68
2023/10/12 09:47:09;;;;;;;25.15;10.27;;;;;;;17.83;100.00;100696.00;5589186;31;34707;-67
2023/10/12 09:50:14;;;;;;;17.60;8.98;;;;;;;17.92;100.00;100686.69;5589612;31;34203;-68
2023/10/12 09:53:35;;;;;;;18.17;8.73;;;;;;;18.11;100.00;100679.66;5588927;31;34383;-68
2023/10/12 09:56:53;;;;;;;14.55;8.60;;;;;;;18.20;100.00;100673.03;5589363;31;34899;-67
2023/10/12 10:00:18;;;;;;;20.42;8.15;;;;;;;18.37;100.00;100678.78;5590855;31;34206;-67
2023/10/12 10:03:25;;;;;;;18.52;8.95;;;;;;;18.46;100.00;100680.19;5589784;31;34425;-67
2023/10/12 10:06:37;;;;;;;21.20;9.38;;;;;;;18.55;100.00;100669.03;5589061;31;33976;-67
2023/10/12 10:09:46;;;;;;;23.12;9.05;;;;;;;18.59;100.00;100680.16;5575574;31;34038;-67
2023/10/12 10:12:49;;;;;;;18.08;8.45;;;;;;;18.74;100.00;100677.19;5588955;31;34186;-67
2023/10/12 10:16:10;;;;;;;21.27;8.93;;;;;;;18.92;100.00;100670.09;5575041;31;35476;-68
2023/10/12 10:19:14;;;;;;;19.23;8.93;;;;;;;18.90;100.00;100666.78;5589269;31;34842;-68
2023/10/12 10:22:21;;;;;;;26.83;9.52;;;;;;;19.06;100.00;100677.06;5588726;31;34141;-67
2023/10/12 10:25:28;;;;;;;22.80;8.45;;;;;;;19.24;100.00;100673.63;5574501;31;34678;-68
2023/10/12 10:28:34;;;;;;;25.45;8.80;;;;;;;19.41;100.00;100665.88;5588417;31;34142;-68
2023/10/12 10:31:44;;;;;;;16.77;8.77;;;;;;;19.65;99.08;100667.78;5588596;31;34292;-67
2023/10/12 10:34:47;;;;;;;16.77;8.77;;;;;;;19.88;98.02;100665.28;5588679;31;34872;-69
2023/10/12 10:38:00;;;;;;;21.48;8.75;;;;;;;19.91;95.91;100655.91;5588620;31;34091;-67
2023/10/12 10:41:18;;;;;;;18.30;9.07;;;;;;;20.00;95.93;100653.75;5562706;31;34064;-67
2023/10/12 10:44:26;;;;;;;21.08;9.07;;;;;;;19.88;96.01;100653.69;5588718;31;34880;-69
2023/10/12 10:47:32;;;;;;;18.67;8.70;;;;;;;20.20;93.78;100646.31;5588865;31;34112;-67
2023/10/12 10:50:49;;;;;;;21.98;8.80;;;;;;;20.39;99.62;100653.38;5587737;31;34153;-68
2023/10/12 10:53:53;;;;;;;20.12;9.10;;;;;;;20.67;89.14;100658.22;5574745;31;34764;-68
2023/10/12 10:57:15;;;;;;;23.95;9.10;;;;;;;22.34;78.86;100649.72;5587092;31;34403;-67
2023/10/12 11:00:33;;;;;;;20.83;8.05;;;;;;;24.86;62.94;100648.69;5588488;31;34334;-69
2023/10/12 11:03:36;;;;;;;13.55;7.20;;;;;;;28.20;52.09;100652.88;5587896;31;33982;-69
2023/10/12 11:06:43;;;;;;;25.50;9.18;;;;;;;31.27;43.59;100656.69;5588295;31;34760;-72
2023/10/12 11:12:54;;;;;;;20.30;7.07;;;;;;;31.78;40.03;100653.91;5587956;31;34011;-69
2023/10/12 11:16:04;;;;;;;14.95;6.93;;;;;;;33.63;35.83;100654.06;5588321;31;35004;-69
2023/10/12 11:19:09;;;;;;;18.62;6.28;;;;;;;36.07;31.33;100649.03;5588338;31;34175;-69
2023/10/12 11:22:14;;;;;;;14.80;6.70;;;;;;;36.79;30.01;100641.69;5588167;31;34041;-69
2023/10/12 11:25:19;;;;;;;20.88;6.65;;;;;;;32.39;35.28;100630.00;5574046;31;34741;-69
2023/10/12 11:28:23;;;;;;;14.50;6.00;;;;;;;31.83;37.43;100609.94;5587833;31;33952;-70
2023/10/12 11:31:32;;;;;;;17.12;6.65;;;;;;;33.20;35.94;100615.28;5587607;31;34267;-70
2023/10/12 11:34:45;;;;;;;15.90;6.40;;;;;;;33.74;34.43;100618.88;5587510;31;34189;-69
2023/10/12 11:37:49;;;;;;;14.55;6.28;;;;;;;32.71;35.23;100607.88;5587376;31;34402;-68
2023/10/12 11:40:52;;;;;;;15.60;5.97;;;;;;;30.48;38.76;100597.28;5587550;31;34333;-69
2023/10/12 11:44:00;;;;;;;13.75;6.35;;;;;;;32.33;37.20;100597.16;5587737;31;35019;-69
2023/10/12 11:47:10;;;;;;;17.08;6.37;;;;;;;29.88;40.23;100585.09;5587484;31;34064;-69
2023/10/12 11:50:13;;;;;;;15.50;6.10;;;;;;;30.41;39.86;100572.97;5587809;31;34034;-70
2023/10/12 11:53:17;;;;;;;16.20;6.12;;;;;;;33.68;35.42;100581.59;5587656;31;34791;-69
2023/10/12 11:56:25;;;;;;;19.98;6.18;;;;;;;33.81;35.72;100572.41;5587678;31;34139;-69
2023/10/12 11:59:31;;;;;;;17.85;6.90;;;;;;;33.21;35.21;100583.91;5573587;31;33999;-70
2023/10/12 12:02:35;;;;;;;14.30;6.85;;;;;;;35.29;33.05;100584.94;5587259;31;34125;-69
2023/10/12 12:05:39;;;;;;;21.52;6.00;;;;;;;34.36;34.01;100581.03;5574005;31;34096;-68
2023/10/12 12:08:43;;;;;;;24.73;6.15;;;;;;;33.68;34.39;100578.84;5575128;31;34246;-70
2023/10/12 12:11:47;;;;;;;15.20;6.07;;;;;;;35.08;33.73;100580.44;5576373;31;34137;-70
2023/10/12 12:14:49;;;;;;;26.40;5.93;;;;;;;33.76;34.68;100569.81;5589711;31;34104;-69
2023/10/12 12:17:53;;;;;;;20.08;6.05;;;;;;;31.66;37.62;100556.78;5589765;31;35488;-69
2023/10/12 12:20:56;;;;;;;22.08;6.25;;;;;;;30.91;38.83;100556.94;5590085;31;34283;-69
2023/10/12 12:24:14;;;;;;;12.20;6.32;;;;;;;29.29;43.65;100556.13;5590407;31;34162;-70
2023/10/12 12:31:13;;;;;;;15.07;6.40;;;;;;;27.38;48.32;100540.41;5589969;31;34108;-70
2023/10/12 12:34:07;;;;;;;16.77;6.70;;;;;;;26.32;51.87;100535.69;5588002;31;34265;-69
2023/10/12 12:37:10;;;;;;;16.33;6.18;;;;;;;25.86;57.05;100523.78;5590086;31;34012;-69
2023/10/12 12:40:27;;;;;;;21.20;6.68;;;;;;;25.71;57.69;100520.97;5589795;31;34372;-68
2023/10/12 12:43:33;;;;;;;16.37;6.75;;;;;;;25.04;60.35;100499.88;5590029;31;33379;-69
2023/10/12 12:46:37;;;;;;;18.92;7.05;;;;;;;24.83;62.70;100505.37;5576038;31;34159;-69
2023/10/12 12:49:41;;;;;;;21.67;7.07;;;;;;;24.40;63.90;100501.72;5589757;31;34886;-69
2023/10/12 12:52:46;;;;;;;14.80;6.10;;;;;;;24.34;67.20;100481.06;5589638;31;34038;-69
2023/10/12 12:55:49;;;;;;;19.45;6.62;;;;;;;24.34;66.22;100481.06;5590161;31;34044;-70
2023/10/12 12:58:53;;;;;;;14.00;6.20;;;;;;;24.16;67.37;100484.06;5589575;31;34072;-69
2023/10/12 13:01:56;;;;;;;20.73;7.30;;;;;;;24.07;67.90;100482.88;5589564;31;33963;-69
2023/10/12 13:05:00;;;;;;;20.65;6.60;;;;;;;24.19;67.00;100475.47;5589475;31;33949;-69
2023/10/12 13:08:07;;;;;;;18.30;6.20;;;;;;;24.03;69.13;100477.16;5589688;31;34237;-69
2023/10/12 13:11:11;;;;;;;20.67;6.97;;;;;;;23.90;70.63;100485.69;5589569;31;34363;-69
2023/10/12 13:14:15;;;;;;;19.87;6.68;;;;;;;23.89;70.99;100472.38;5589439;31;34762;-70
2023/10/12 13:17:18;;;;;;;17.40;6.43;;;;;;;23.94;70.40;100472.44;5589240;31;34883;-68
2023/10/12 13:20:21;;;;;;;17.80;6.20;;;;;;;24.01;68.70;100478.50;5588457;31;34035;-69
2023/10/12 13:23:25;;;;;;;15.48;6.45;;;;;;;23.99;68.34;100475.22;5589571;31;34017;-68
2023/10/12 13:26:27;;;;;;;23.00;6.60;;;;;;;23.90;68.61;100469.41;5589333;31;33992;-69
2023/10/12 13:29:30;;;;;;;19.27;6.40;;;;;;;23.88;70.61;100474.25;5589220;31;34180;-69
2023/10/12 13:32:34;;;;;;;19.25;6.57;;;;;;;23.89;74.76;100472.38;5588997;31;34032;-69
2023/10/12 13:38:45;;;;;;;17.87;6.78;;;;;;;23.64;74.26;100468.28;5575375;31;33978;-68
2023/10/12 13:41:48;;;;;;;20.45;6.37;;;;;;;23.64;76.23;100457.44;5588811;31;34216;-68
2023/10/12 13:44:52;;;;;;;26.55;7.07;;;;;;;23.62;77.94;100464.19;5589109;31;34066;-68
2023/10/12 13:47:55;;;;;;;15.88;6.70;;;;;;;23.59;75.32;100459.25;5588800;31;34079;-68
2023/10/12 13:51:08;;;;;;;17.75;7.05;;;;;;;23.80;76.48;100451.16;5588677;31;34659;-69
2023/10/12 13:54:12;;;;;;;21.20;6.80;;;;;;;23.74;75.15;100452.16;5574924;31;34237;-68
2023/10/12 13:57:15;;;;;;;22.05;7.10;;;;;;;23.54;75.64;100448.38;5588658;31;34829;-68
2023/10/12 14:00:22;;;;;;;25.15;6.97;;;;;;;23.42;77.87;100447.63;5575404;31;34140;-69
2023/10/12 14:03:28;;;;;;;20.98;6.60;;;;;;;23.30;82.42;100445.03;5588732;31;34008;-69
2023/10/12 14:06:33;;;;;;;18.05;6.20;;;;;;;23.21;85.40;100436.53;5588332;31;34002;-70
2023/10/12 14:09:36;;;;;;;23.70;6.62;;;;;;;23.06;86.57;100433.59;5575145;31;34275;-68
2023/10/12 14:12:39;;;;;;;16.87;6.68;;;;;;;23.00;88.45;100431.06;5588428;31;34957;-69
2023/10/12 14:15:43;;;;;;;22.98;7.57;;;;;;;22.93;89.05;100432.06;5588813;31;34689;-68
2023/10/12 14:18:49;;;;;;;21.30;7.07;;;;;;;22.97;81.90;100435.09;5588430;31;34380;-69
2023/10/12 14:21:53;;;;;;;22.83;6.68;;;;;;;23.10;85.18;100432.03;5588060;31;34853;-68
2023/10/12 14:24:58;;;;;;;19.12;6.55;;;;;;;23.01;81.26;100428.09;5588541;31;34714;-68
2023/10/12 14:28:05;;;;;;;21.40;6.82;;;;;;;22.90;83.00;100427.13;5587861;31;34791;-69
2023/10/12 14:31:08;;;;;;;20.52;6.10;;;;;;;22.82;85.56;100435.66;5574909;31;34224;-68
2023/10/12 14:34:13;;;;;;;16.62;6.43;;;;;;;22.67;82.12;100434.56;5587466;31;34014;-69
2023/10/12 14:37:16;;;;;;;22.48;6.57;;;;;;;22.69;84.24;100433.28;5588102;31;34298;-68
2023/10/12 14:40:19;;;;;;;18.55;6.20;;;;;;;22.73;79.31;100437.16;5588094;31;34249;-67
2023/10/12 14:43:23;;;;;;;18.12;5.95;;;;;;;22.64;81.21;100429.66;5588008;31;34370;-68
2023/10/12 14:46:29;;;;;;;25.17;6.50;;;;;;;22.54;81.87;100419.50;5587435;31;34215;-68
2023/10/12 14:49:33;;;;;;;22.25;6.68;;;;;;;22.37;86.56;100424.88;5588132;31;34118;-68
2023/10/12 14:52:39;;;;;;;25.00;6.62;;;;;;;22.30;88.80;100421.53;5588026;31;34114;-68
2023/10/12 14:55:43;;;;;;;18.45;6.50;;;;;;;22.26;87.96;100425.78;5587876;31;34065;-68
2023/10/12 14:58:47;;;;;;;18.30;6.45;;;;;;;22.23;87.72;100420.84;5587473;31;34937;-68
2023/10/12 15:01:51;;;;;;;19.83;6.78;;;;;;;22.31;87.49;100417.75;5587944;31;34004;-67
2023/10/12 15:04:54;;;;;;;19.15;6.07;;;;;;;22.10;92.02;100421.97;5587830;31;34794;-69
2023/10/12 15:07:57;;;;;;;17.25;6.53;;;;;;;22.16;89.20;100416.66;5587898;31;34813;-69
2023/10/12 15:11:01;;;;;;;19.08;6.70;;;;;;;22.19;90.16;100429.69;5573612;31;34075;-68
2023/10/12 15:14:06;;;;;;;22.20;6.47;;;;;;;22.07;92.07;100441.34;5587107;31;34242;-67
2023/10/12 15:17:14;;;;;;;19.05;6.68;;;;;;;21.99;95.66;100436.34;5573956;31;34286;-67
2023/10/12 15:20:18;;;;;;;18.73;7.05;;;;;;;21.84;92.93;100436.00;5587002;31;35119;-68
2023/10/12 15:23:21;;;;;;;18.00;6.10;;;;;;;21.87;92.17;100443.66;5573526;31;34849;-68
2023/10/12 15:26:24;;;;;;;17.37;6.78;;;;;;;22.13;88.65;100444.16;5587092;31;34229;-67
2023/10/12 15:29:27;;;;;;;18.70;6.53;;;;;;;22.16;88.46;100452.62;5573798;31;33785;-67
2023/10/12 15:32:30;;;;;;;26.37;7.45;;;;;;;22.20;87.35;100456.47;5586979;31;34777;-67
2023/10/12 15:35:34;;;;;;;22.48;6.43;;;;;;;22.21;87.77;100455.41;5587029;31;34189;-67
2023/10/12 15:38:36;;;;;;;18.58;6.32;;;;;;;22.06;89.67;100455.13;5573331;31;34055;-67